Terminal Aerodrome Forecast
Issued by NWS Lake Charles, LA

Home | Current Version | Previous Version | Text Only | Print | Product List | Glossary On
Versions: 1 2 3 4 5 6 7 8 9 10 11 12 13 14 15 16
000
FTUS44 KLCH 282008 AAA
TAFBPT
TAF AMD
KBPT 282008Z 2820/2918 12015KT P6SM VCTS SCT025CB BKN050
      TEMPO 2820/2822 BKN025CB
     FM290200 11008KT P6SM BKN120
     FM291200 19008KT P6SM VCTS BKN025CB=

USA.gov is the U.S. government's official web portal to all federal, state and local government web resources and services.